Wilson Gdynia — 8PSA — position and weather

sailwx.info

Track history (hours):
 
Tides and Currents Weather Stations Pressure Air Temp Water Temp Dewpoint Dewpoint Depression Visibility Wind Speed Wind Dir Waves Ship Positions

Wilson Gdynia

Last reported at 2014-Oct-21 00:07 UTC. Time now 2014-Oct-26 08:35 UTC.
Position N 69°57' E 017°24'.

Length 88 m; draft 3.5 m.

Type: Cargo ship. MMSI: 314192000.

Date/timePositionNaut miles runAvg speedWind from/ knotsBaromVisibWave heightAir tempDewpointWater temp
2014-Oct-21 00:07N 69°57' E 017°24'23510.9
2014-Oct-20 02:33N 66°37' E 011°49'1010.1
2014-Oct-20 01:33N 66°27' E 011°52'1210.1
2014-Oct-20 00:21N 66°17' E 012°12'1011.5
2014-Oct-19 23:31N 66°15' E 012°35'8 0.3
2014-Oct-18 18:29N 66°07' E 012°40'8 8.8
2014-Oct-18 17:33N 66°15' E 012°33'10 9.4
2014-Oct-18 16:32N 66°17' E 012°10'  
2014-Oct-14 02:34N 53°32' E 000°39'6 6.2
2014-Oct-14 01:33N 53°32' E 000°29'6 5.9
2014-Oct-14 00:33N 53°33' E 000°19'8 8.3
2014-Oct-13 23:33N 53°34' E 000°05'1010.3
2014-Oct-13 22:33N 53°38' W 000°11'0 0.5
2014-Oct-13 21:33N 53°38' W 000°12'0 0.0
2014-Oct-13 20:29N 53°38' W 000°12'0 0.0
2014-Oct-13 19:30N 53°38' W 000°12'0 0.0
2014-Oct-13 18:32N 53°38' W 000°12'0 0.0
2014-Oct-13 17:32N 53°38' W 000°12'0 0.0
2014-Oct-13 16:26N 53°38' W 000°12'0 0.0
2014-Oct-13 15:29N 53°38' W 000°12'0 0.0
2014-Oct-13 14:32N 53°38' W 000°12'0 0.0
2014-Oct-13 13:29N 53°38' W 000°12'0 0.0
2014-Oct-13 12:32N 53°38' W 000°12'0 0.0
2014-Oct-13 11:29N 53°38' W 000°12'0 0.0
2014-Oct-13 10:32N 53°38' W 000°12'0 0.0
2014-Oct-13 09:32N 53°38' W 000°12'0 0.0
2014-Oct-13 08:32N 53°38' W 000°12'0 0.0
2014-Oct-13 07:32N 53°38' W 000°12'0 0.0
2014-Oct-13 06:32N 53°38' W 000°12'0 0.0
2014-Oct-13 05:32N 53°38' W 000°12'0 0.0
2014-Oct-13 04:26N 53°38' W 000°12'0 0.0
2014-Oct-13 03:32N 53°38' W 000°12'0 0.0
2014-Oct-13 02:32N 53°38' W 000°12'0 0.0
2014-Oct-13 01:26N 53°38' W 000°12'0 0.0
2014-Oct-13 00:29N 53°38' W 000°12'0 0.0
2014-Oct-12 23:20N 53°38' W 000°12'0 0.0
2014-Oct-12 22:32N 53°38' W 000°12'0 0.0
2014-Oct-12 21:29N 53°38' W 000°12'0 0.0
2014-Oct-12 20:32N 53°38' W 000°12'0 0.0
2014-Oct-12 19:23N 53°38' W 000°12'0 0.0
2014-Oct-12 18:29N 53°38' W 000°12'0 0.0
2014-Oct-12 17:29N 53°38' W 000°12'0 0.0
2014-Oct-12 16:32N 53°38' W 000°12'0 0.0
2014-Oct-12 15:32N 53°38' W 000°12'0 0.0
2014-Oct-12 14:32N 53°38' W 000°12'0 0.0
2014-Oct-12 13:29N 53°38' W 000°12'0 0.0
2014-Oct-12 12:29N 53°38' W 000°12'0 0.0
2014-Oct-12 11:32N 53°38' W 000°12'0 0.0
2014-Oct-12 10:32N 53°38' W 000°12'0 0.0
2014-Oct-12 09:32N 53°38' W 000°12'0 0.0
2014-Oct-12 08:32N 53°38' W 000°12'0 0.0
2014-Oct-12 07:29N 53°38' W 000°12'0 0.3
2014-Oct-12 06:33N 53°38' W 000°11'1 0.8
2014-Oct-12 05:33N 53°39' W 000°12'9 9.2
2014-Oct-12 04:34N 53°35' E 000°03'8 8.2
2014-Oct-12 03:33N 53°33' E 000°16'6 4.8
2014-Oct-12 02:22N 53°35' E 000°25'0 0.0
2014-Oct-12 01:31N 53°35' E 000°25'0 0.0
2014-Oct-12 00:19N 53°35' E 000°25'0 0.0
2014-Oct-11 23:25N 53°35' E 000°25'0 0.0
2014-Oct-11 22:19N 53°35' E 000°25'0 0.0
2014-Oct-11 21:25N 53°35' E 000°25'0 0.1
2014-Oct-11 20:13N 53°35' E 000°25'0 0.0
2014-Oct-11 19:25N 53°35' E 000°25'0 0.0
2014-Oct-11 18:31N 53°35' E 000°25'0 0.0
2014-Oct-11 17:28N 53°35' E 000°25'0 0.0
2014-Oct-11 16:28N 53°35' E 000°25'0 0.1
2014-Oct-11 15:19N 53°35' E 000°25'5 5.8
2014-Oct-11 14:32N 53°33' E 000°32'1210.5
2014-Oct-11 13:22N 53°25' E 000°49'2010.9
2014-Oct-11 11:32N 53°12' E 001°13'9 8.8
2014-Oct-11 10:34N 53°06' E 001°23'7 7.4
2014-Oct-11 09:34N 53°00' E 001°31'7 6.5
2014-Oct-11 08:33N 52°55' E 001°39'7 6.6
2014-Oct-11 07:33N 52°51' E 001°47'8 8.0
2014-Oct-11 06:33N 52°46' E 001°58'10 9.7
2014-Oct-11 05:33N 52°38' E 002°07'1110.9
2014-Oct-11 04:33N 52°29' E 002°17'3110.2
2014-Oct-11 01:33N 52°03' E 002°44'  
Track history (hours):
 
Tides and Currents Weather Stations Pressure Air Temp Water Temp Dewpoint Dewpoint Depression Visibility Wind Speed Wind Dir Waves Ship Positions

Wilson Gdynia

Last reported at 2014-Oct-21 00:07 UTC. Time now 2014-Oct-26 08:35 UTC.
Position N 69°57' E 017°24'.

Length 88 m; draft 3.5 m.

Type: Cargo ship. MMSI: 314192000.

Date/timePositionNaut miles runAvg speedWind from/ knotsBaromVisibWave heightAir tempDewpointWater temp
2014-Oct-21 00:07N 69°57' E 017°24'23510.9
2014-Oct-20 02:33N 66°37' E 011°49'1010.1
2014-Oct-20 01:33N 66°27' E 011°52'1210.1
2014-Oct-20 00:21N 66°17' E 012°12'1011.5
2014-Oct-19 23:31N 66°15' E 012°35'8 0.3
2014-Oct-18 18:29N 66°07' E 012°40'8 8.8
2014-Oct-18 17:33N 66°15' E 012°33'10 9.4
2014-Oct-18 16:32N 66°17' E 012°10'  
2014-Oct-14 02:34N 53°32' E 000°39'6 6.2
2014-Oct-14 01:33N 53°32' E 000°29'6 5.9
2014-Oct-14 00:33N 53°33' E 000°19'8 8.3
2014-Oct-13 23:33N 53°34' E 000°05'1010.3
2014-Oct-13 22:33N 53°38' W 000°11'0 0.5
2014-Oct-13 21:33N 53°38' W 000°12'0 0.0
2014-Oct-13 20:29N 53°38' W 000°12'0 0.0
2014-Oct-13 19:30N 53°38' W 000°12'0 0.0
2014-Oct-13 18:32N 53°38' W 000°12'0 0.0
2014-Oct-13 17:32N 53°38' W 000°12'0 0.0
2014-Oct-13 16:26N 53°38' W 000°12'0 0.0
2014-Oct-13 15:29N 53°38' W 000°12'0 0.0
2014-Oct-13 14:32N 53°38' W 000°12'0 0.0
2014-Oct-13 13:29N 53°38' W 000°12'0 0.0
2014-Oct-13 12:32N 53°38' W 000°12'0 0.0
2014-Oct-13 11:29N 53°38' W 000°12'0 0.0
2014-Oct-13 10:32N 53°38' W 000°12'0 0.0
2014-Oct-13 09:32N 53°38' W 000°12'0 0.0
2014-Oct-13 08:32N 53°38' W 000°12'0 0.0
2014-Oct-13 07:32N 53°38' W 000°12'0 0.0
2014-Oct-13 06:32N 53°38' W 000°12'0 0.0
2014-Oct-13 05:32N 53°38' W 000°12'0 0.0
2014-Oct-13 04:26N 53°38' W 000°12'0 0.0
2014-Oct-13 03:32N 53°38' W 000°12'0 0.0
2014-Oct-13 02:32N 53°38' W 000°12'0 0.0
2014-Oct-13 01:26N 53°38' W 000°12'0 0.0
2014-Oct-13 00:29N 53°38' W 000°12'0 0.0
2014-Oct-12 23:20N 53°38' W 000°12'0 0.0
2014-Oct-12 22:32N 53°38' W 000°12'0 0.0
2014-Oct-12 21:29N 53°38' W 000°12'0 0.0
2014-Oct-12 20:32N 53°38' W 000°12'0 0.0
2014-Oct-12 19:23N 53°38' W 000°12'0 0.0
2014-Oct-12 18:29N 53°38' W 000°12'0 0.0
2014-Oct-12 17:29N 53°38' W 000°12'0 0.0
2014-Oct-12 16:32N 53°38' W 000°12'0 0.0
2014-Oct-12 15:32N 53°38' W 000°12'0 0.0
2014-Oct-12 14:32N 53°38' W 000°12'0 0.0
2014-Oct-12 13:29N 53°38' W 000°12'0 0.0
2014-Oct-12 12:29N 53°38' W 000°12'0 0.0
2014-Oct-12 11:32N 53°38' W 000°12'0 0.0
2014-Oct-12 10:32N 53°38' W 000°12'0 0.0
2014-Oct-12 09:32N 53°38' W 000°12'0 0.0
2014-Oct-12 08:32N 53°38' W 000°12'0 0.0
2014-Oct-12 07:29N 53°38' W 000°12'0 0.3
2014-Oct-12 06:33N 53°38' W 000°11'1 0.8
2014-Oct-12 05:33N 53°39' W 000°12'9 9.2
2014-Oct-12 04:34N 53°35' E 000°03'8 8.2
2014-Oct-12 03:33N 53°33' E 000°16'6 4.8
2014-Oct-12 02:22N 53°35' E 000°25'0 0.0
2014-Oct-12 01:31N 53°35' E 000°25'0 0.0
2014-Oct-12 00:19N 53°35' E 000°25'0 0.0
2014-Oct-11 23:25N 53°35' E 000°25'0 0.0
2014-Oct-11 22:19N 53°35' E 000°25'0 0.0
2014-Oct-11 21:25N 53°35' E 000°25'0 0.1
2014-Oct-11 20:13N 53°35' E 000°25'0 0.0
2014-Oct-11 19:25N 53°35' E 000°25'0 0.0
2014-Oct-11 18:31N 53°35' E 000°25'0 0.0
2014-Oct-11 17:28N 53°35' E 000°25'0 0.0
2014-Oct-11 16:28N 53°35' E 000°25'0 0.1
2014-Oct-11 15:19N 53°35' E 000°25'5 5.8
2014-Oct-11 14:32N 53°33' E 000°32'1210.5
2014-Oct-11 13:22N 53°25' E 000°49'2010.9
2014-Oct-11 11:32N 53°12' E 001°13'9 8.8
2014-Oct-11 10:34N 53°06' E 001°23'7 7.4
2014-Oct-11 09:34N 53°00' E 001°31'7 6.5
2014-Oct-11 08:33N 52°55' E 001°39'7 6.6
2014-Oct-11 07:33N 52°51' E 001°47'8 8.0
2014-Oct-11 06:33N 52°46' E 001°58'10 9.7
2014-Oct-11 05:33N 52°38' E 002°07'1110.9
2014-Oct-11 04:33N 52°29' E 002°17'3110.2
2014-Oct-11 01:33N 52°03' E 002°44'  

Dump ship's entire track history